Time;durP1;ratioP1;P1;durP2;ratioP2;P2;SDS_P1;SDS_P2;PMS_P1;PMS_P2;Temp;Humidity;BMP_temperature;BMP_pressure;BME280_temperature;BME280_humidity;BME280_pressure;Samples;Min_cycle;Max_cycle;Signal;HPM_P1;HPM_P2
2021/05/16 00:01:38;;;;;;;5.75;2.63;;;;;;;15.67;64.65;99734.34;5071320;28;20481;-74
2021/05/16 00:04:03;;;;;;;6.30;2.63;;;;;;;15.55;64.81;99710.88;5070468;28;20025;-69
2021/05/16 00:06:29;;;;;;;5.22;2.78;;;;;;;15.57;64.74;99716.97;5052618;28;20355;-69
2021/05/16 00:08:54;;;;;;;6.30;2.72;;;;;;;15.35;65.22;99706.47;5070627;28;20065;-70
2021/05/16 00:11:20;;;;;;;8.50;3.22;;;;;;;15.07;64.96;99688.97;5070968;28;20425;-70
2021/05/16 00:13:46;;;;;;;5.03;2.70;;;;;;;15.12;64.97;99728.84;5070630;28;20029;-72
2021/05/16 00:16:11;;;;;;;6.75;2.83;;;;;;;14.87;65.94;99716.53;5070671;28;20070;-73
2021/05/16 00:18:37;;;;;;;5.35;3.13;;;;;;;14.48;65.59;99659.94;5051324;28;20472;-70
2021/05/16 00:21:03;;;;;;;5.90;2.95;;;;;;;14.93;64.81;99727.84;5070318;28;20027;-70
2021/05/16 00:23:28;;;;;;;5.85;3.08;;;;;;;14.90;64.80;99727.84;5069623;28;20071;-71
2021/05/16 00:25:54;;;;;;;7.95;2.85;;;;;;;14.46;64.69;99654.72;5051179;28;20472;-72
2021/05/16 00:28:19;;;;;;;6.32;2.90;;;;;;;14.59;64.62;99663.47;5070888;28;20025;-69
2021/05/16 00:30:45;;;;;;;4.78;2.67;;;;;;;15.09;64.70;99726.22;5070343;28;20359;-71
2021/05/16 00:33:10;;;;;;;6.15;2.63;;;;;;;15.01;65.86;99732.22;5070123;28;20056;-70
2021/05/16 00:35:36;;;;;;;7.32;2.90;;;;;;;15.13;65.99;99733.22;5052365;28;20028;-69
2021/05/16 00:38:03;;;;;;;10.18;3.03;;;;;;;15.20;65.60;99721.97;5070308;28;20078;-71
2021/05/16 00:40:53;;;;;;;4.78;2.63;;;;;;;15.36;64.98;99730.72;5070461;28;20099;-67
2021/05/16 00:43:20;;;;;;;10.90;3.05;;;;;;;14.95;64.52;99659.41;5067749;28;20048;-70
2021/05/16 00:45:47;;;;;;;6.13;3.13;;;;;;;15.45;64.76;99730.78;5070057;28;20082;-67
2021/05/16 00:48:14;;;;;;;4.50;2.35;;;;;;;15.45;64.26;99728.19;5051282;28;20576;-71
2021/05/16 00:50:45;;;;;;;8.35;2.67;;;;;;;15.57;64.03;99732.56;5070476;28;20063;-67
2021/05/16 00:53:10;;;;;;;5.82;2.60;;;;;;;15.46;64.68;99723.84;5070366;28;20118;-68
2021/05/16 00:55:37;;;;;;;5.70;2.70;;;;;;;15.12;64.48;99724.53;5070102;28;20497;-67
2021/05/16 00:58:04;;;;;;;8.68;3.00;;;;;;;15.10;64.93;99726.22;5069462;28;20417;-69
2021/05/16 01:00:34;;;;;;;4.20;2.65;;;;;;;15.13;64.48;99722.81;5069739;28;20529;-69
2021/05/16 01:02:59;;;;;;;7.13;3.00;;;;;;;15.09;64.13;99721.03;5070084;28;20025;-68
2021/05/16 01:05:25;;;;;;;7.40;2.75;;;;;;;15.13;64.15;99715.88;5069922;28;20020;-70
2021/05/16 01:07:51;;;;;;;6.05;2.60;;;;;;;14.93;64.63;99694.94;5052050;28;20103;-71
2021/05/16 01:10:19;;;;;;;5.10;3.20;;;;;;;14.91;64.28;99714.00;5070162;28;20028;-67
2021/05/16 01:12:46;;;;;;;5.57;3.05;;;;;;;15.02;63.77;99725.31;5069552;28;20017;-69
2021/05/16 01:15:16;;;;;;;7.07;2.97;;;;;;;14.94;63.36;99704.50;5034173;28;20041;-69
2021/05/16 01:17:42;;;;;;;7.05;2.42;;;;;;;14.88;64.41;99722.63;5056939;28;20054;-73
2021/05/16 01:20:11;;;;;;;6.00;3.00;;;;;;;14.24;67.22;99713.38;5069294;28;20407;-72
2021/05/16 01:22:37;;;;;;;5.43;3.13;;;;;;;14.15;67.96;99719.34;5067793;28;20032;-68
2021/05/16 01:25:04;;;;;;;4.68;3.20;;;;;;;14.26;67.48;99711.69;5051290;28;20031;-71
2021/05/16 01:27:30;;;;;;;6.55;2.83;;;;;;;14.39;67.01;99720.44;5070327;28;20031;-71
2021/05/16 01:29:55;;;;;;;5.75;3.17;;;;;;;14.20;66.95;99683.06;5070920;28;20051;-67
2021/05/16 01:32:23;;;;;;;5.95;3.13;;;;;;;14.29;68.48;99705.66;5074556;28;20023;-70
2021/05/16 01:34:49;;;;;;;6.22;3.30;;;;;;;14.34;68.04;99710.03;5056468;28;20017;-67
2021/05/16 01:37:15;;;;;;;7.05;3.60;;;;;;;14.43;66.53;99716.16;5055407;28;20052;-69
2021/05/16 01:39:41;;;;;;;7.45;3.30;;;;;;;14.05;66.54;99663.88;5056991;28;20036;-70
2021/05/16 01:42:09;;;;;;;5.50;2.80;;;;;;;14.35;66.75;99713.50;5057302;28;20032;-68
2021/05/16 01:44:35;;;;;;;5.15;2.78;;;;;;;14.29;65.93;99667.56;5060194;28;20122;-71
2021/05/16 01:47:02;;;;;;;6.82;2.90;;;;;;;14.74;65.45;99732.03;5057394;28;20116;-65
2021/05/16 01:49:53;;;;;;;6.68;3.10;;;;;;;14.75;64.86;99733.78;5042204;28;20055;-69
2021/05/16 01:52:25;;;;;;;5.63;2.83;;;;;;;14.64;65.08;99731.94;4992509;28;20129;-68
2021/05/16 01:54:50;;;;;;;6.78;2.83;;;;;;;14.50;65.53;99728.34;4990639;28;20082;-70
2021/05/16 01:57:16;;;;;;;8.52;2.65;;;;;;;13.88;66.06;99647.28;4992745;28;20050;-70
2021/05/16 01:59:43;;;;;;;7.70;3.00;;;;;;;14.06;67.10;99735.69;4991952;28;20053;-70
2021/05/16 02:02:08;;;;;;;7.80;2.88;;;;;;;14.06;67.07;99737.44;4992277;28;20034;-69
2021/05/16 02:04:34;;;;;;;6.97;2.65;;;;;;;14.17;66.61;99745.34;4989719;28;20061;-68
2021/05/16 02:07:00;;;;;;;4.97;2.72;;;;;;;14.26;66.08;99749.78;4991793;28;20027;-68
2021/05/16 02:09:27;;;;;;;5.93;2.97;;;;;;;14.24;66.14;99736.75;4992089;28;20555;-68
2021/05/16 02:11:53;;;;;;;6.70;2.58;;;;;;;13.86;65.77;99662.84;4991856;28;20030;-66
2021/05/16 02:14:32;;;;;;;7.20;2.78;;;;;;;14.06;65.68;99691.59;4992049;28;20409;-65
2021/05/16 02:16:59;;;;;;;10.50;3.10;;;;;;;14.30;65.68;99742.00;4991633;28;20042;-67
2021/05/16 02:19:25;;;;;;;6.03;2.90;;;;;;;13.83;65.90;99673.19;4991654;28;20304;-67
2021/05/16 02:21:52;;;;;;;5.05;2.80;;;;;;;14.11;66.21;99727.13;4991404;28;20034;-70
2021/05/16 02:24:18;;;;;;;4.75;2.50;;;;;;;14.18;65.67;99745.38;4991816;28;20475;-71
2021/05/16 02:26:44;;;;;;;5.28;2.72;;;;;;;14.00;65.88;99732.19;4991782;28;20125;-70
2021/05/16 02:29:10;;;;;;;5.03;2.80;;;;;;;14.02;66.28;99741.72;5025152;28;20051;-69
2021/05/16 02:31:36;;;;;;;8.05;3.58;;;;;;;13.93;66.52;99741.59;5062830;28;20028;-73
2021/05/16 02:34:03;;;;;;;4.68;2.55;;;;;;;13.77;66.95;99737.97;5073248;28;20099;-70
2021/05/16 02:36:29;;;;;;;6.88;3.30;;;;;;;13.72;67.55;99742.22;5073333;28;20021;-70
2021/05/16 02:38:55;;;;;;;8.15;3.25;;;;;;;13.79;67.24;99750.97;5073404;28;20035;-69
2021/05/16 02:41:21;;;;;;;6.97;3.28;;;;;;;13.82;67.22;99741.50;5073114;28;20024;-70
2021/05/16 02:43:46;;;;;;;10.23;3.50;;;;;;;13.73;66.93;99734.47;5073438;28;20025;-72
2021/05/16 02:46:12;;;;;;;9.35;3.58;;;;;;;13.78;66.89;99752.66;5072765;28;20025;-72
2021/05/16 02:48:38;;;;;;;13.55;3.83;;;;;;;13.73;66.39;99731.88;5073142;28;20040;-71
2021/05/16 02:51:04;;;;;;;15.07;3.38;;;;;;;13.50;67.02;99743.69;5073222;28;20484;-70
2021/05/16 02:53:30;;;;;;;8.95;3.20;;;;;;;13.34;67.91;99721.84;5072831;28;20363;-69
2021/05/16 02:55:55;;;;;;;7.30;2.97;;;;;;;13.43;68.07;99730.63;5073129;28;20090;-73
2021/05/16 02:58:21;;;;;;;6.43;3.00;;;;;;;13.43;68.29;99733.22;5073071;28;20057;-71
2021/05/16 03:00:46;;;;;;;8.10;3.10;;;;;;;12.79;68.83;99670.94;5072502;28;20067;-76
2021/05/16 03:03:12;;;;;;;8.80;3.55;;;;;;;12.77;68.61;99665.75;5024785;28;20077;-68
2021/05/16 03:05:38;;;;;;;5.97;3.13;;;;;;;13.13;68.91;99751.75;5022438;28;20033;-69
2021/05/16 03:08:04;;;;;;;7.25;3.33;;;;;;;13.31;68.61;99753.78;5026269;28;20041;-75
2021/05/16 03:10:30;;;;;;;5.47;2.95;;;;;;;13.33;68.17;99761.56;5021333;28;20030;-71
2021/05/16 03:12:55;;;;;;;8.00;3.03;;;;;;;13.19;67.93;99743.22;5026136;28;20431;-68
2021/05/16 03:15:21;;;;;;;6.30;3.05;;;;;;;13.20;68.01;99752.75;5006909;28;20045;-68
2021/05/16 03:17:46;;;;;;;7.28;3.30;;;;;;;13.09;67.92;99756.03;5024018;28;20109;-73
2021/05/16 03:20:13;;;;;;;7.70;3.70;;;;;;;12.32;68.71;99633.09;5025226;28;20121;-70
2021/05/16 03:22:38;;;;;;;5.28;3.20;;;;;;;12.88;69.81;99748.78;5021866;28;20029;-72
2021/05/16 03:25:06;;;;;;;9.80;3.55;;;;;;;12.67;70.79;99762.25;5025833;28;20033;-72
2021/05/16 03:27:31;;;;;;;9.95;3.72;;;;;;;12.57;71.23;99747.41;5021073;28;20041;-69
2021/05/16 03:29:57;;;;;;;6.43;3.50;;;;;;;12.50;71.64;99753.34;5025746;28;20646;-69
2021/05/16 03:32:22;;;;;;;7.82;3.35;;;;;;;12.27;72.37;99746.94;5025526;28;20037;-68
2021/05/16 03:34:48;;;;;;;6.70;3.00;;;;;;;12.40;71.74;99755.78;5013170;28;20033;-73
2021/05/16 03:37:13;;;;;;;7.50;3.30;;;;;;;12.39;71.88;99763.53;5029777;28;20045;-69
2021/05/16 03:39:39;;;;;;;7.88;3.33;;;;;;;12.32;71.59;99754.75;5033850;28;20045;-69
2021/05/16 03:42:05;;;;;;;8.07;3.03;;;;;;;12.34;71.62;99768.59;5072451;28;20024;-72
2021/05/16 03:44:30;;;;;;;5.93;2.90;;;;;;;12.40;71.94;99781.66;5072373;28;20386;-68
2021/05/16 03:46:56;;;;;;;4.88;3.10;;;;;;;12.49;71.30;99767.16;5071861;28;20049;-74
2021/05/16 03:49:21;;;;;;;6.43;2.90;;;;;;;11.98;71.40;99682.53;5050787;28;20132;-68
2021/05/16 03:51:48;;;;;;;6.30;3.20;;;;;;;12.05;72.17;99700.78;5051631;28;20025;-70
2021/05/16 03:54:15;;;;;;;8.45;3.17;;;;;;;12.37;73.04;99766.06;5051615;28;20024;-69
2021/05/16 03:56:41;;;;;;;6.70;3.72;;;;;;;12.40;72.61;99767.81;5050405;28;20059;-69
2021/05/16 03:59:07;;;;;;;8.98;3.42;;;;;;;12.36;72.47;99769.50;5052237;28;20083;-69
2021/05/16 04:01:33;;;;;;;6.25;3.10;;;;;;;12.60;72.17;99781.16;5051572;28;20111;-69
2021/05/16 04:03:59;;;;;;;9.27;3.83;;;;;;;12.48;72.06;99748.13;5050467;28;20028;-73
2021/05/16 04:06:24;;;;;;;8.88;3.60;;;;;;;12.49;72.80;99769.75;5051597;28;20033;-73
2021/05/16 04:08:50;;;;;;;6.70;3.20;;;;;;;12.56;73.33;99776.75;5051335;28;20029;-73
2021/05/16 04:11:15;;;;;;;9.00;3.30;;;;;;;12.69;72.49;99770.94;5052024;28;20028;-71
2021/05/16 04:13:41;;;;;;;8.55;3.40;;;;;;;12.88;71.56;99782.47;5189278;22;20000;-72
2021/05/16 04:16:07;;;;;;;8.35;3.90;;;;;;;13.08;71.11;99793.19;5052114;28;20078;-71
2021/05/16 04:18:32;;;;;;;8.65;3.83;;;;;;;13.18;71.15;99785.53;5052003;28;20029;-71
2021/05/16 04:20:58;;;;;;;12.02;3.90;;;;;;;13.20;70.77;99783.84;5049943;28;20037;-70
2021/05/16 04:23:25;;;;;;;11.38;4.32;;;;;;;13.40;71.00;99798.00;5049261;28;20089;-72
2021/05/16 04:25:51;;;;;;;13.27;4.40;;;;;;;13.47;70.78;99790.31;5051557;28;20024;-72
2021/05/16 04:28:17;;;;;;;13.00;4.43;;;;;;;13.41;71.09;99768.63;5051455;28;20410;-72
2021/05/16 04:30:42;;;;;;;11.88;4.90;;;;;;;13.23;71.58;99712.19;5049955;28;20059;-73
2021/05/16 04:33:08;;;;;;;12.55;6.22;;;;;;;13.81;72.09;99775.22;5051179;28;20479;-72
2021/05/16 04:35:33;;;;;;;22.48;7.43;;;;;;;13.53;73.09;99729.03;5051464;28;20021;-72
2021/05/16 04:37:59;;;;;;;22.00;7.20;;;;;;;13.88;73.85;99788.28;5051119;28;20029;-71
2021/05/16 04:40:24;;;;;;;21.42;7.40;;;;;;;13.69;75.23;99794.94;5051366;28;20028;-72
2021/05/16 04:42:50;;;;;;;25.85;9.15;;;;;;;13.46;77.84;99791.16;5051053;28;20463;-72
2021/05/16 04:45:16;;;;;;;27.02;9.10;;;;;;;12.84;79.18;99728.88;5048887;28;20075;-69
2021/05/16 04:47:41;;;;;;;24.40;9.07;;;;;;;13.29;81.37;99796.06;5050806;28;20029;-69
2021/05/16 04:50:07;;;;;;;26.13;9.45;;;;;;;13.57;80.96;99798.25;5040455;28;20076;-69
2021/05/16 04:52:33;;;;;;;21.95;8.60;;;;;;;13.74;81.03;99793.28;5050878;28;20406;-70
2021/05/16 04:54:59;;;;;;;27.55;9.00;;;;;;;13.89;79.97;99778.75;5057594;28;20502;-72
2021/05/16 04:57:25;;;;;;;19.02;7.60;;;;;;;13.46;79.58;99703.00;5050553;28;20035;-75
2021/05/16 04:59:52;;;;;;;23.77;7.35;;;;;;;13.96;78.97;99769.34;5050551;28;20029;-71
2021/05/16 05:02:18;;;;;;;15.63;6.82;;;;;;;14.22;78.19;99782.63;5037105;28;20029;-73
2021/05/16 05:04:44;;;;;;;19.85;6.95;;;;;;;14.22;77.52;99783.47;5052729;28;20021;-71
2021/05/16 05:07:10;;;;;;;23.60;7.50;;;;;;;14.13;78.31;99778.19;5068937;28;20031;-71
2021/05/16 05:09:36;;;;;;;20.05;6.50;;;;;;;14.12;78.07;99783.34;5067717;28;20036;-68
2021/05/16 05:12:02;;;;;;;16.65;6.50;;;;;;;14.21;77.63;99779.13;5050556;28;20025;-72
2021/05/16 05:14:31;;;;;;;15.88;5.63;;;;;;;14.38;77.68;99792.31;5061073;28;20049;-69
2021/05/16 05:16:56;;;;;;;17.75;5.30;;;;;;;14.49;76.28;99797.63;5070528;28;20552;-71
2021/05/16 05:19:22;;;;;;;13.38;4.53;;;;;;;14.59;75.24;99795.94;5069005;28;20115;-69
2021/05/16 05:21:48;;;;;;;14.98;4.88;;;;;;;14.62;74.85;99789.94;5064639;28;20115;-69
2021/05/16 05:24:13;;;;;;;9.57;4.30;;;;;;;14.73;74.76;99798.75;5053213;28;20433;-67
2021/05/16 05:26:39;;;;;;;9.80;4.30;;;;;;;14.80;74.97;99804.84;5056081;28;20031;-71
2021/05/16 05:29:04;;;;;;;9.57;4.00;;;;;;;14.90;73.69;99782.41;5070293;28;20695;-71
2021/05/16 05:31:30;;;;;;;8.25;4.25;;;;;;;15.11;72.56;99800.78;5069576;28;20018;-69
2021/05/16 05:33:56;;;;;;;7.43;4.00;;;;;;;15.15;72.79;99801.66;5069775;28;20031;-71
2021/05/16 05:36:21;;;;;;;6.38;3.60;;;;;;;15.23;73.13;99805.19;5069923;28;20456;-73
2021/05/16 05:38:47;;;;;;;9.23;3.72;;;;;;;14.89;72.38;99734.75;5049077;28;20025;-72
2021/05/16 05:41:14;;;;;;;8.88;3.90;;;;;;;15.36;71.75;99799.22;5049605;28;20033;-71
2021/05/16 05:43:39;;;;;;;8.50;3.95;;;;;;;15.37;72.18;99802.69;5039122;28;20025;-71
2021/05/16 05:46:05;;;;;;;6.85;3.30;;;;;;;15.43;71.79;99800.13;5053113;28;20410;-72
2021/05/16 05:48:30;;;;;;;6.95;3.20;;;;;;;15.56;71.85;99803.66;5057797;28;20028;-72
2021/05/16 05:50:57;;;;;;;8.82;3.97;;;;;;;15.48;71.19;99758.53;5059676;28;20029;-72
2021/05/16 05:53:22;;;;;;;6.97;3.53;;;;;;;15.72;71.13;99798.56;5037761;28;20025;-73
2021/05/16 05:55:48;;;;;;;10.05;3.55;;;;;;;15.83;70.49;99802.97;5053162;28;20021;-72
2021/05/16 05:58:13;;;;;;;8.40;3.35;;;;;;;15.93;70.18;99797.81;5053909;28;20028;-72
2021/05/16 06:00:39;;;;;;;6.80;4.18;;;;;;;16.02;69.42;99808.25;5053231;28;20017;-71
2021/05/16 06:03:04;;;;;;;7.15;3.40;;;;;;;16.10;70.08;99808.28;5035591;28;20450;-72
2021/05/16 06:05:30;;;;;;;6.78;3.80;;;;;;;16.17;69.47;99816.16;5053264;28;20406;-72
2021/05/16 06:07:56;;;;;;;11.90;3.75;;;;;;;16.25;68.67;99803.16;5053291;28;20037;-72
2021/05/16 06:10:23;;;;;;;6.78;3.55;;;;;;;16.11;68.19;99790.09;5053003;28;20028;-71
2021/05/16 06:12:49;;;;;;;6.82;4.00;;;;;;;16.23;67.83;99812.69;5052606;28;20059;-72
2021/05/16 06:15:15;;;;;;;9.75;4.75;;;;;;;16.18;68.35;99799.63;5050820;28;20490;-72
2021/05/16 06:17:40;;;;;;;8.90;4.20;;;;;;;16.27;67.85;99798.78;5046511;28;20462;-72
2021/05/16 06:20:07;;;;;;;9.13;3.80;;;;;;;16.42;68.24;99810.13;5047591;28;20033;-72
2021/05/16 06:22:33;;;;;;;7.57;4.75;;;;;;;16.58;67.73;99805.81;5001702;28;20546;-71
2021/05/16 06:24:58;;;;;;;9.32;5.03;;;;;;;16.29;67.80;99763.22;5051343;28;20028;-71
2021/05/16 06:27:24;;;;;;;12.73;4.68;;;;;;;16.57;67.45;99809.28;5048924;28;20057;-71
2021/05/16 06:29:50;;;;;;;8.70;4.90;;;;;;;16.31;68.24;99810.97;5052914;28;20471;-70
2021/05/16 06:32:15;;;;;;;8.10;4.72;;;;;;;16.27;68.16;99804.00;5052988;28;20467;-71
2021/05/16 06:34:41;;;;;;;7.20;4.28;;;;;;;16.55;67.63;99817.13;5052899;28;20451;-70
2021/05/16 06:37:06;;;;;;;7.88;4.07;;;;;;;16.75;67.22;99816.28;5052888;28;20021;-67
2021/05/16 06:39:32;;;;;;;8.00;4.07;;;;;;;16.87;67.20;99821.47;5053049;28;20427;-72
2021/05/16 06:41:58;;;;;;;8.00;4.88;;;;;;;16.70;68.30;99799.75;5052579;28;20055;-72
2021/05/16 06:44:25;;;;;;;8.98;4.38;;;;;;;16.69;68.17;99817.13;5034832;28;20033;-72
2021/05/16 06:46:50;;;;;;;8.38;3.40;;;;;;;16.66;68.18;99811.94;5034893;28;20017;-73
2021/05/16 06:49:16;;;;;;;6.10;4.03;;;;;;;16.84;67.69;99795.41;5052649;28;20384;-73
2021/05/16 06:51:42;;;;;;;8.07;4.40;;;;;;;16.98;68.32;99808.50;5052386;28;20021;-73
2021/05/16 06:54:08;;;;;;;7.90;3.97;;;;;;;17.02;67.92;99796.31;5052550;28;20036;-72
2021/05/16 06:56:34;;;;;;;6.53;4.05;;;;;;;17.06;68.11;99795.44;5052161;28;20040;-72
2021/05/16 06:59:00;;;;;;;7.38;3.50;;;;;;;17.32;67.35;99798.06;5052524;28;20029;-72
2021/05/16 07:01:25;;;;;;;9.68;3.50;;;;;;;17.52;66.16;99795.41;5052433;28;20502;-73
2021/05/16 07:03:51;;;;;;;6.78;3.65;;;;;;;17.63;64.60;99795.34;5052929;28;20033;-73
2021/05/16 07:06:16;;;;;;;5.95;3.33;;;;;;;17.69;64.75;99778.81;5052225;28;20078;-72
2021/05/16 07:08:42;;;;;;;5.55;3.03;;;;;;;17.92;64.11;99795.25;5052247;28;20040;-72
2021/05/16 07:11:07;;;;;;;8.90;3.38;;;;;;;17.99;63.20;99779.59;5051773;28;20029;-72
2021/05/16 07:13:33;;;;;;;5.75;3.05;;;;;;;17.95;63.17;99774.38;5016794;28;20059;-70
2021/05/16 07:15:59;;;;;;;8.48;3.75;;;;;;;18.13;64.43;99803.03;5052017;28;20060;-71
2021/05/16 07:18:24;;;;;;;9.52;2.78;;;;;;;18.11;64.28;99795.22;5052065;28;20060;-71
2021/05/16 07:20:53;;;;;;;5.93;2.85;;;;;;;18.07;63.55;99791.75;5051808;28;20046;-72
2021/05/16 07:23:19;;;;;;;5.45;2.60;;;;;;;17.71;61.70;99727.47;5055533;28;20039;-72
2021/05/16 07:25:45;;;;;;;5.40;2.40;;;;;;;18.02;61.63;99788.28;5045276;28;20028;-71
2021/05/16 07:28:11;;;;;;;4.22;2.50;;;;;;;17.98;62.74;99770.91;5063954;28;20028;-71
2021/05/16 07:30:36;;;;;;;6.65;2.50;;;;;;;18.10;62.15;99769.97;5043796;28;20624;-68
2021/05/16 07:33:02;;;;;;;4.70;2.60;;;;;;;18.31;61.11;99786.41;5062385;28;20032;-70
2021/05/16 07:35:28;;;;;;;5.53;2.72;;;;;;;18.59;60.44;99784.47;5066177;28;20478;-70
2021/05/16 07:37:53;;;;;;;5.18;2.72;;;;;;;18.85;58.85;99783.41;5044613;28;20369;-71
2021/05/16 07:40:20;;;;;;;4.97;2.70;;;;;;;18.66;60.26;99804.47;5045466;28;20022;-70
2021/05/16 07:42:45;;;;;;;7.68;2.67;;;;;;;18.70;61.21;99798.31;5013771;28;20121;-70
2021/05/16 07:45:12;;;;;;;5.82;2.70;;;;;;;18.58;60.54;99798.44;5042534;28;20097;-70
2021/05/16 07:47:39;;;;;;;6.18;2.75;;;;;;;18.41;59.98;99781.09;5038007;28;20021;-70
2021/05/16 07:50:06;;;;;;;6.95;2.92;;;;;;;18.26;59.83;99784.69;5040378;28;20147;-70
2021/05/16 07:52:32;;;;;;;6.60;2.92;;;;;;;18.40;60.41;99802.03;5036623;28;20491;-69
2021/05/16 07:54:57;;;;;;;6.13;3.13;;;;;;;18.70;59.84;99793.09;5023754;28;20107;-69
2021/05/16 07:57:23;;;;;;;6.57;2.90;;;;;;;18.76;59.85;99792.19;5049477;28;20028;-70
2021/05/16 07:59:48;;;;;;;4.93;2.67;;;;;;;18.99;59.89;99801.63;5040535;28;20129;-70
2021/05/16 08:02:14;;;;;;;7.45;3.13;;;;;;;18.93;58.90;99799.97;5039339;28;20021;-70
2021/05/16 08:04:39;;;;;;;6.45;3.33;;;;;;;18.84;59.17;99802.59;5023425;28;20449;-69
2021/05/16 08:07:05;;;;;;;5.45;2.55;;;;;;;18.73;57.83;99792.25;5050078;28;20037;-69
2021/05/16 08:09:31;;;;;;;3.88;2.05;;;;;;;18.75;57.48;99790.47;5062627;28;20033;-70
2021/05/16 08:11:56;;;;;;;4.40;2.33;;;;;;;18.75;58.37;99787.84;5067778;28;20028;-69
2021/05/16 08:14:22;;;;;;;4.82;2.15;;;;;;;18.65;57.57;99765.28;5032765;28;20136;-70
2021/05/16 08:16:47;;;;;;;4.75;2.10;;;;;;;19.01;57.13;99784.19;5033619;28;20026;-69
2021/05/16 08:19:13;;;;;;;3.45;2.20;;;;;;;19.28;56.18;99766.47;5051235;28;20028;-69
2021/05/16 08:21:39;;;;;;;4.13;2.42;;;;;;;19.39;56.00;99775.97;5064966;28;20021;-70
2021/05/16 08:24:05;;;;;;;3.95;2.38;;;;;;;19.51;56.27;99781.97;5060261;28;20024;-69
2021/05/16 08:26:31;;;;;;;4.43;3.08;;;;;;;19.67;56.54;99756.47;5034050;28;20668;-69
2021/05/16 08:28:57;;;;;;;5.82;2.60;;;;;;;19.55;56.02;99760.97;5044857;28;20032;-68
2021/05/16 08:31:22;;;;;;;4.85;1.90;;;;;;;19.53;55.74;99770.59;5050674;28;20060;-68
2021/05/16 08:33:48;;;;;;;7.05;2.80;;;;;;;19.52;55.54;99753.13;5051243;28;20053;-69
2021/05/16 08:36:13;;;;;;;3.45;2.08;;;;;;;19.70;53.45;99775.63;5056356;28;20469;-67
2021/05/16 08:38:39;;;;;;;2.58;1.80;;;;;;;19.53;52.80;99761.88;5036407;28;20029;-68
2021/05/16 08:41:04;;;;;;;3.20;1.65;;;;;;;19.20;52.30;99707.28;5042245;28;20024;-68
2021/05/16 08:43:30;;;;;;;3.63;2.50;;;;;;;19.73;53.01;99772.97;5038877;28;20034;-69
2021/05/16 08:45:56;;;;;;;3.70;1.92;;;;;;;19.71;53.70;99740.72;5050175;28;20017;-71
2021/05/16 08:48:22;;;;;;;2.80;1.70;;;;;;;20.17;51.13;99764.59;5050062;28;20041;-69
2021/05/16 08:50:48;;;;;;;2.85;1.80;;;;;;;20.41;52.06;99760.78;5048481;28;20098;-70
2021/05/16 08:53:14;;;;;;;7.93;2.10;;;;;;;20.49;50.42;99755.41;5047866;28;20538;-69
2021/05/16 08:55:39;;;;;;;4.95;2.28;;;;;;;20.44;50.45;99742.34;5024066;28;20041;-70
2021/05/16 08:58:06;;;;;;;3.47;2.20;;;;;;;20.50;50.51;99757.13;5026354;28;20029;-69
2021/05/16 09:00:42;;;;;;;13.05;2.95;;;;;;;20.45;51.13;99751.97;5006842;28;20038;-68
2021/05/16 09:03:10;;;;;;;4.63;2.08;;;;;;;20.28;52.20;99754.81;5026660;28;20522;-69
2021/05/16 09:05:40;;;;;;;6.30;2.13;;;;;;;20.26;52.54;99753.09;5022968;28;20080;-72
2021/05/16 09:08:10;;;;;;;7.30;2.28;;;;;;;20.24;51.97;99747.00;5026382;28;20033;-68
2021/05/16 09:10:36;;;;;;;5.65;1.85;;;;;;;20.40;51.47;99755.53;5009362;28;20049;-69
2021/05/16 09:13:20;;;;;;;3.08;1.95;;;;;;;20.66;49.94;99757.75;5026098;28;20037;-69
2021/05/16 09:16:10;;;;;;;2.35;1.77;;;;;;;20.53;50.07;99705.47;5023188;28;20625;-69
2021/05/16 09:18:48;;;;;;;3.72;1.80;;;;;;;20.88;47.41;99711.06;5026121;28;20046;-69
2021/05/16 09:21:23;;;;;;;4.43;1.83;;;;;;;20.91;48.25;99686.53;5025978;28;20148;-69
2021/05/16 09:23:50;;;;;;;4.28;1.60;;;;;;;21.43;49.04;99735.44;5025974;28;20645;-72
2021/05/16 09:26:16;;;;;;;5.07;1.88;;;;;;;21.58;47.80;99731.69;5031205;28;20094;-69
2021/05/16 09:28:41;;;;;;;3.65;1.67;;;;;;;21.69;49.62;99725.31;5047941;28;20107;-69
2021/05/16 09:31:08;;;;;;;2.55;1.60;;;;;;;21.64;49.10;99739.41;5050589;28;20021;-68
2021/05/16 09:33:34;;;;;;;3.13;1.70;;;;;;;21.57;48.42;99726.44;5050680;28;20029;-69
2021/05/16 09:36:06;;;;;;;4.07;1.90;;;;;;;21.61;48.39;99702.72;5050771;28;20025;-74
2021/05/16 09:38:33;;;;;;;4.32;1.95;;;;;;;21.86;49.50;99733.72;5050244;28;20451;-69
2021/05/16 09:40:58;;;;;;;8.40;2.10;;;;;;;21.23;50.98;99720.03;5050556;28;20028;-70
2021/05/16 09:43:31;;;;;;;4.50;1.90;;;;;;;20.62;51.46;99729.84;5050588;28;20029;-69
2021/05/16 09:46:06;;;;;;;7.28;2.63;;;;;;;20.43;52.44;99703.91;5048761;28;20029;-68
2021/05/16 09:48:41;;;;;;;5.43;2.20;;;;;;;20.58;51.61;99696.69;5049886;28;20121;-70
2021/05/16 09:51:25;;;;;;;11.30;2.60;;;;;;;20.57;51.02;99719.41;5034266;28;20040;-70
2021/05/16 09:54:01;;;;;;;9.65;2.83;;;;;;;20.40;51.83;99706.59;5066597;28;20040;-72
2021/05/16 09:56:37;;;;;;;5.18;2.38;;;;;;;20.00;52.95;99662.63;5075142;28;20456;-68
2021/05/16 09:59:10;;;;;;;7.88;2.28;;;;;;;20.35;51.73;99716.28;5061846;28;20114;-70
2021/05/16 10:01:39;;;;;;;2.72;1.70;;;;;;;20.34;52.16;99701.44;5040286;28;20517;-69
2021/05/16 10:04:08;;;;;;;3.53;1.88;;;;;;;20.26;50.45;99696.34;5030422;28;20415;-70
2021/05/16 10:06:35;;;;;;;5.97;2.30;;;;;;;20.43;51.63;99711.78;5071269;28;20040;-70
2021/05/16 10:09:01;;;;;;;5.88;1.90;;;;;;;20.28;51.57;99684.06;5050676;28;20575;-68
2021/05/16 10:11:29;;;;;;;5.97;1.73;;;;;;;20.69;51.90;99713.13;5052009;28;20115;-70
2021/05/16 10:14:15;;;;;;;5.63;1.60;;;;;;;20.81;51.71;99706.81;5051719;28;20494;-70
2021/05/16 10:16:43;;;;;;;5.03;1.88;;;;;;;20.99;50.52;99705.63;5053451;28;20044;-67
2021/05/16 10:19:20;;;;;;;4.32;1.60;;;;;;;21.35;49.94;99695.34;5071915;28;20025;-71
2021/05/16 10:22:07;;;;;;;2.45;1.58;;;;;;;21.68;50.31;99695.53;5067988;28;20028;-71
2021/05/16 10:24:51;;;;;;;3.65;1.73;;;;;;;22.02;47.49;99686.94;5063713;28;20390;-70
2021/05/16 10:27:23;;;;;;;3.42;1.50;;;;;;;22.00;49.54;99688.72;5069188;28;20415;-73
2021/05/16 10:29:55;;;;;;;3.83;1.77;;;;;;;21.96;46.44;99687.94;5062551;28;20160;-70
2021/05/16 10:32:41;;;;;;;2.80;1.38;;;;;;;22.27;44.91;99683.75;5069007;28;20500;-72
2021/05/16 10:35:11;;;;;;;3.97;1.55;;;;;;;22.75;42.89;99687.84;5067184;28;20025;-71
2021/05/16 10:37:39;;;;;;;1.60;1.38;;;;;;;22.81;42.11;99676.31;5065905;28;20021;-72
2021/05/16 10:40:23;;;;;;;3.05;1.35;;;;;;;22.74;42.80;99615.94;5061539;28;20509;-69
2021/05/16 10:43:04;;;;;;;2.90;1.40;;;;;;;22.93;41.52;99661.03;5045373;28;20041;-71
2021/05/16 10:45:37;;;;;;;2.80;1.67;;;;;;;22.53;41.61;99677.88;5044781;28;20052;-73
2021/05/16 10:48:11;;;;;;;3.17;1.20;;;;;;;22.42;42.19;99680.75;5051880;28;20554;-71
2021/05/16 10:50:41;;;;;;;3.13;1.52;;;;;;;21.90;44.18;99627.63;5050765;28;20433;-72
2021/05/16 10:53:16;;;;;;;4.55;1.55;;;;;;;21.75;46.24;99668.25;5034781;28;20025;-71
2021/05/16 10:55:49;;;;;;;10.15;2.03;;;;;;;21.67;46.71;99672.84;5049965;28;20074;-72
2021/05/16 10:58:42;;;;;;;7.10;1.50;;;;;;;21.50;46.55;99671.38;5031736;28;20029;-71
2021/05/16 11:01:17;;;;;;;3.25;1.50;;;;;;;21.46;47.31;99672.34;4971110;28;20669;-72
2021/05/16 11:04:00;;;;;;;4.50;1.40;;;;;;;22.15;44.21;99663.84;4971505;28;20050;-70
2021/05/16 11:06:38;;;;;;;5.90;1.40;;;;;;;22.22;45.49;99667.19;4971734;28;20427;-69
2021/05/16 11:09:06;;;;;;;5.95;1.15;;;;;;;21.50;42.69;99589.09;4972051;28;20162;-72
2021/05/16 11:11:34;;;;;;;5.45;1.20;;;;;;;21.87;43.48;99663.63;4971892;28;20465;-73
2021/05/16 11:14:16;;;;;;;3.30;1.33;;;;;;;21.91;43.43;99655.66;4971862;28;20604;-70
2021/05/16 11:16:49;;;;;;;2.20;1.40;;;;;;;21.96;43.54;99661.66;4971061;28;20500;-71
2021/05/16 11:19:15;;;;;;;6.18;1.50;;;;;;;21.81;43.41;99652.34;4971688;28;20047;-69
2021/05/16 11:21:41;;;;;;;3.35;1.60;;;;;;;21.68;45.90;99656.16;4971400;28;20046;-70
2021/05/16 11:24:07;;;;;;;8.20;1.80;;;;;;;21.17;49.80;99665.94;4971822;28;20022;-71
2021/05/16 11:26:35;;;;;;;3.08;1.58;;;;;;;20.96;51.76;99647.94;4971946;28;20034;-69
2021/05/16 11:29:02;;;;;;;6.25;2.15;;;;;;;20.73;54.58;99654.50;4970330;28;20062;-69
2021/05/16 11:31:32;;;;;;;6.72;1.60;;;;;;;20.58;56.06;99666.09;4970164;28;20050;-69
2021/05/16 11:34:00;;;;;;;13.63;2.00;;;;;;;20.38;59.13;99678.69;4955597;28;20121;-69